EST,Max TemperatureF,Mean TemperatureF,Min TemperatureF,Max Dew PointF,MeanDew PointF,Min DewpointF,Max Humidity, Mean Humidity, Min Humidity, Max Sea Level PressureIn, Mean Sea Level PressureIn, Min Sea Level PressureIn, Max VisibilityMiles, Mean VisibilityMiles, Min VisibilityMiles, Max Wind SpeedMPH, Mean Wind SpeedMPH, Max Gust SpeedMPH,PrecipitationIn, CloudCover, Events, WindDirDegrees
2012-12-1,73,62,51,55,52,46,100,79,38,30.39,30.33,30.30,10,10,5,6,1,,0.00,7,,96
2012-12-2,77,62,48,57,53,48,100,82,39,30.40,30.33,30.27,10,9,3,6,0,,0.00,4,,207
2012-12-3,77,64,50,63,52,45,100,83,32,30.36,30.31,30.26,10,9,0,9,0,,0.00,5,Fog,139
2012-12-4,77,62,46,63,54,46,100,83,41,30.37,30.29,30.25,10,8,0,9,1,,0.00,4,Fog,209
2012-12-5,77,62,46,55,51,46,100,78,36,30.26,30.19,30.12,10,9,0,9,1,,0.00,2,Fog,284
2012-12-6,60,56,51,59,56,52,100,97,94,30.19,30.14,30.12,10,8,2,10,4,,0.00,6,Rain,53
2012-12-7,66,56,46,54,49,45,100,84,59,30.13,30.08,30.01,10,10,7,8,4,,0.00,4,,50
2012-12-8,73,60,46,59,52,46,100,82,44,30.11,30.06,30.02,10,7,0,7,1,,0.00,5,Fog,144
2012-12-9,68,59,50,64,59,50,100,97,78,30.14,30.08,30.03,10,6,0,7,1,,0.00,6,Fog,205
2012-12-10,77,62,48,64,55,48,100,84,39,30.02,29.89,29.79,10,6,0,16,2,22,0.00,5,Fog-Rain,220
2012-12-11,62,55,48,63,45,34,100,71,44,30.14,30.00,29.83,10,10,7,13,5,18,0.00,7,,319
2012-12-12,48,45,42,48,43,34,100,93,62,30.26,30.18,30.11,10,8,4,10,4,,0.00,8,Rain,17
2012-12-13,50,42,35,45,42,36,100,94,76,30.38,30.32,30.22,10,9,5,15,7,20,0.00,7,,39
2012-12-14,60,46,33,45,39,34,100,83,42,30.41,30.31,30.23,10,10,5,8,2,,0.00,0,,55
2012-12-15,62,52,42,54,45,36,100,84,42,30.26,30.18,30.11,10,10,7,6,1,,0.00,2,,96
2012-12-16,69,61,53,64,59,54,100,94,68,30.12,30.01,29.88,10,7,0,13,2,21,0.00,8,Fog-Rain,190
2012-12-17,60,58,55,61,58,55,100,100,100,29.96,29.86,29.76,10,8,1,10,4,18,0.00,7,Rain-Thunderstorm,209
2012-12-18,64,50,37,61,43,23,100,73,22,30.06,29.94,29.80,10,9,0,16,5,23,0.00,2,Fog,288
2012-12-19,69,50,32,45,36,30,100,74,23,30.16,30.10,30.06,10,10,1,6,1,,0.00,0,,257
2012-12-20,71,53,35,64,46,32,100,81,45,30.11,29.93,29.74,10,10,2,17,5,37,0.00,3,Rain,228
2012-12-21,50,44,37,30,18,10,61,37,20,30.15,30.04,29.95,10,10,10,24,13,32,0.00,0,,294
2012-12-22,59,44,30,30,15,5,93,38,12,30.28,30.22,30.16,10,10,10,12,6,16,0.00,0,,288
2012-12-23,59,44,28,36,28,21,100,62,23,30.27,30.20,30.12,10,10,10,8,1,,0.00,1,,236
2012-12-24,53,48,42,54,44,28,100,83,43,30.13,30.01,29.93,10,7,0,10,2,,0.00,7,Fog-Rain-Thunderstorm,177
2012-12-25,60,56,53,61,56,54,100,100,100,30.03,29.97,29.83,10,5,0,13,3,16,0.00,8,Fog-Rain,94
2012-12-26,62,52,41,63,43,30,100,76,54,29.99,29.77,29.60,10,9,1,24,13,36,0.00,7,Rain-Thunderstorm,255
2012-12-27,51,42,32,37,32,30,100,71,47,30.11,30.05,29.99,10,10,10,13,8,20,0.00,2,,291
2012-12-28,51,40,30,43,35,30,100,85,50,30.15,30.07,29.90,10,10,7,5,0,,0.00,2,,102
2012-12-29,51,44,37,48,39,27,100,81,57,30.22,29.97,29.79,10,9,3,21,7,28,0.00,7,Rain-Thunderstorm,312
2012-12-30,51,40,30,32,27,18,100,71,26,30.46,30.37,30.22,10,10,10,13,5,17,0.00,1,,310
2012-12-31,60,44,28,46,35,27,100,75,38,30.44,30.35,30.22,10,10,10,9,1,,0.00,3,,239